Time;durP1;ratioP1;P1;durP2;ratioP2;P2;SDS_P1;SDS_P2;PMS_P1;PMS_P2;Temp;Humidity;BMP_temperature;BMP_pressure;BME280_temperature;BME280_humidity;BME280_pressure;Samples;Min_cycle;Max_cycle;Signal;HPM_P1;HPM_P2
2022/05/05 00:00:24;;;;;;;7.78;3.08;;;;;;;8.07;39.40;100774.80;1767301;81;25780;-68
2022/05/05 00:02:52;;;;;;;8.88;3.10;;;;;;;8.04;39.38;100782.91;1764005;81;25539;-67
2022/05/05 00:05:18;;;;;;;11.33;3.25;;;;;;;8.03;39.47;100783.98;1767271;80;25620;-67
2022/05/05 00:07:46;;;;;;;8.78;3.22;;;;;;;8.02;39.42;100783.19;1767352;81;25552;-67
2022/05/05 00:15:41;;;;;;;8.98;2.95;;;;;;;8.00;39.49;100785.36;1768987;81;25434;-67
2022/05/05 00:18:08;;;;;;;7.65;3.65;;;;;;;8.00;39.58;100783.19;1768973;81;25592;-67
2022/05/05 00:20:33;;;;;;;7.50;3.30;;;;;;;7.98;39.79;100790.75;1768946;81;32367;-68
2022/05/05 00:23:00;;;;;;;4.65;2.62;;;;;;;7.95;39.70;100784.05;1768989;81;27369;-67
2022/05/05 00:25:26;;;;;;;6.83;3.30;;;;;;;7.94;39.80;100786.47;1768858;81;25508;-67
2022/05/05 00:27:52;;;;;;;6.85;2.85;;;;;;;7.91;39.82;100787.02;1768949;81;29666;-66
2022/05/05 00:30:18;;;;;;;6.75;3.00;;;;;;;7.85;39.81;100785.46;1768931;81;34624;-66
2022/05/05 00:32:44;;;;;;;5.17;3.20;;;;;;;7.83;39.90;100790.30;1769023;81;32461;-66
2022/05/05 00:35:10;;;;;;;4.95;3.20;;;;;;;7.82;39.98;100783.31;1769002;81;27393;-67
2022/05/05 00:37:36;;;;;;;6.75;2.80;;;;;;;7.80;40.04;100788.18;1768887;81;25770;-66
2022/05/05 00:40:04;;;;;;;6.70;3.40;;;;;;;7.76;40.19;100785.22;1768980;81;25535;-66
2022/05/05 00:42:31;;;;;;;7.80;3.80;;;;;;;7.76;40.19;100788.45;1768918;81;25780;-66
2022/05/05 00:44:57;;;;;;;4.87;2.50;;;;;;;7.73;40.41;100789.83;1769005;81;25457;-67
2022/05/05 00:47:23;;;;;;;5.72;3.20;;;;;;;7.72;40.33;100788.76;1705618;82;28093;-67
2022/05/05 00:49:50;;;;;;;7.85;2.77;;;;;;;7.70;40.33;100794.42;1795960;79;25780;-67
2022/05/05 00:52:16;;;;;;;10.93;3.65;;;;;;;7.68;40.45;100795.25;1796121;79;25563;-67
2022/05/05 00:54:42;;;;;;;4.45;3.40;;;;;;;7.72;40.69;100798.19;1796021;79;35178;-67
2022/05/05 00:57:09;;;;;;;7.65;3.22;;;;;;;7.72;40.69;100798.19;1796136;79;32360;-67
2022/05/05 00:59:37;;;;;;;6.42;3.47;;;;;;;7.65;40.47;100779.09;1796074;79;27294;-67
2022/05/05 01:02:04;;;;;;;9.25;3.05;;;;;;;7.65;40.66;100777.73;1795942;79;25360;-67
2022/05/05 01:04:36;;;;;;;4.10;2.80;;;;;;;7.67;40.82;100776.12;1796198;79;25586;-67
2022/05/05 01:07:03;;;;;;;8.63;3.45;;;;;;;7.67;40.63;100777.47;1796034;79;25619;-66
2022/05/05 01:09:30;;;;;;;6.78;3.17;;;;;;;7.68;40.66;100776.39;1792450;79;25594;-66
2022/05/05 01:11:56;;;;;;;5.05;3.30;;;;;;;7.66;40.63;100776.67;1755705;81;27443;-67
2022/05/05 01:14:22;;;;;;;8.10;3.45;;;;;;;7.64;40.84;100775.32;1785983;80;33469;-67
2022/05/05 01:16:50;;;;;;;5.45;3.15;;;;;;;7.62;40.69;100780.98;1755687;81;25547;-67
2022/05/05 01:19:16;;;;;;;4.62;3.00;;;;;;;7.63;40.70;100785.84;1782382;80;26328;-67
2022/05/05 01:21:54;;;;;;;3.87;2.85;;;;;;;7.60;40.74;100775.63;1755658;81;25558;-67
2022/05/05 01:29:52;;;;;;;8.90;2.90;;;;;;;7.55;40.97;100782.37;1785998;80;25431;-67
2022/05/05 01:32:18;;;;;;;10.68;3.00;;;;;;;7.49;40.91;100781.58;1755651;81;26250;-67
2022/05/05 01:34:44;;;;;;;5.55;2.90;;;;;;;7.50;41.02;100785.09;1786087;80;25455;-67
2022/05/05 01:37:10;;;;;;;6.45;2.90;;;;;;;7.45;41.02;100771.91;1755728;81;28078;-67
2022/05/05 01:39:36;;;;;;;7.47;2.98;;;;;;;7.47;41.17;100787.78;1785994;80;33018;-67
2022/05/05 01:42:05;;;;;;;7.10;2.80;;;;;;;7.45;41.23;100784.02;1755629;81;25346;-67
2022/05/05 01:44:31;;;;;;;9.67;3.40;;;;;;;7.43;41.14;100782.70;1786229;80;25668;-68
2022/05/05 01:46:57;;;;;;;5.33;2.72;;;;;;;7.42;41.18;100789.15;1755669;81;32325;-68
2022/05/05 01:49:23;;;;;;;6.95;2.98;;;;;;;7.43;41.21;100790.22;1785964;80;27424;-67
2022/05/05 01:51:49;;;;;;;5.60;2.40;;;;;;;7.40;41.23;100782.70;1783159;80;33362;-67
2022/05/05 01:54:21;;;;;;;5.90;2.58;;;;;;;7.42;41.36;100779.73;1783303;80;29954;-68
2022/05/05 01:56:47;;;;;;;4.35;2.12;;;;;;;7.41;41.33;100778.94;1758896;81;25667;-68
2022/05/05 01:59:13;;;;;;;3.83;2.50;;;;;;;7.40;41.42;100786.73;1758948;81;25602;-68
2022/05/05 02:01:39;;;;;;;6.75;3.08;;;;;;;7.40;41.25;100781.89;1786031;80;27309;-68
2022/05/05 02:04:05;;;;;;;6.80;3.60;;;;;;;7.49;41.40;100803.11;1783222;80;25404;-68
2022/05/05 02:06:31;;;;;;;6.45;2.98;;;;;;;7.41;41.32;100790.25;1783308;80;29595;-68
2022/05/05 02:08:58;;;;;;;5.95;2.62;;;;;;;7.43;41.46;100792.12;1758905;81;34651;-68
2022/05/05 02:11:25;;;;;;;4.33;2.50;;;;;;;7.44;41.24;100785.64;1725340;81;25422;-68
2022/05/05 02:13:51;;;;;;;3.92;2.40;;;;;;;7.46;41.41;100791.57;1730558;82;27391;-67
2022/05/05 02:16:17;;;;;;;5.95;2.87;;;;;;;7.49;41.34;100796.38;1760916;81;33452;-67
2022/05/05 02:18:43;;;;;;;4.28;2.75;;;;;;;7.51;41.55;100783.48;1761022;81;25578;-65
2022/05/05 02:21:09;;;;;;;5.47;2.42;;;;;;;7.53;41.38;100784.55;1760998;81;25623;-67
2022/05/05 02:23:35;;;;;;;4.47;2.52;;;;;;;7.56;41.25;100788.01;1761026;81;25574;-67
2022/05/05 02:26:02;;;;;;;7.40;2.70;;;;;;;7.57;41.15;100782.90;1761042;81;27944;-67
2022/05/05 02:28:29;;;;;;;3.83;2.30;;;;;;;7.59;41.11;100776.69;1760917;81;27147;-67
2022/05/05 02:30:56;;;;;;;9.18;2.58;;;;;;;7.61;41.21;100779.39;1760983;81;25543;-67
2022/05/05 02:33:22;;;;;;;7.25;2.50;;;;;;;7.64;41.18;100779.36;1760989;81;25667;-68
2022/05/05 02:38:42;;;;;;;7.87;2.65;;;;;;;7.64;41.08;100776.67;1761055;81;25423;-68
2022/05/05 02:41:01;;;;;;;4.05;2.45;;;;;;;7.68;41.10;100771.02;1761070;81;25619;-68
2022/05/05 02:43:28;;;;;;;5.47;3.00;;;;;;;7.70;41.07;100773.43;1760992;81;25381;-68
2022/05/05 02:45:54;;;;;;;6.05;2.37;;;;;;;7.67;41.08;100764.80;1760978;81;25596;-68
2022/05/05 02:48:20;;;;;;;4.80;2.50;;;;;;;7.69;41.20;100779.88;1729254;83;32498;-68
2022/05/05 02:50:46;;;;;;;5.47;2.40;;;;;;;7.71;41.07;100779.06;1760951;81;27410;-68
2022/05/05 02:55:56;;;;;;;4.62;2.52;;;;;;;7.74;41.08;100777.16;1761035;81;25456;-67
2022/05/05 02:58:22;;;;;;;6.72;2.62;;;;;;;7.77;41.14;100779.31;1760929;81;34711;-67
2022/05/05 03:00:48;;;;;;;8.00;2.50;;;;;;;7.77;41.15;100785.48;1761060;81;25408;-67
2022/05/05 03:03:15;;;;;;;5.00;2.72;;;;;;;7.80;41.29;100788.18;1760922;81;27303;-67
2022/05/05 03:05:41;;;;;;;7.28;2.50;;;;;;;7.82;41.21;100790.05;1724975;83;25565;-67
2022/05/05 03:08:07;;;;;;;5.97;2.92;;;;;;;7.83;41.19;100783.56;1761015;81;29676;-67
2022/05/05 03:10:33;;;;;;;4.72;2.52;;;;;;;7.84;40.94;100788.67;1766578;81;25685;-67
2022/05/05 03:12:59;;;;;;;8.38;2.47;;;;;;;7.87;41.06;100787.33;1772179;81;25404;-67
2022/05/05 03:15:25;;;;;;;3.65;2.77;;;;;;;7.88;41.18;100786.23;1772160;81;27391;-67
2022/05/05 03:17:51;;;;;;;6.30;2.67;;;;;;;7.91;41.02;100790.27;1772048;81;33606;-67
2022/05/05 03:20:17;;;;;;;6.12;2.25;;;;;;;7.94;41.05;100789.16;1758909;81;25411;-67
2022/05/05 03:22:43;;;;;;;8.15;2.75;;;;;;;7.98;41.16;100788.86;1740717;82;26301;-67
2022/05/05 03:25:09;;;;;;;5.70;2.33;;;;;;;8.01;41.17;100788.86;1758951;81;32379;-67
2022/05/05 03:27:37;;;;;;;4.80;2.47;;;;;;;8.03;41.03;100794.21;1740796;82;27548;-67
2022/05/05 03:30:05;;;;;;;4.55;2.70;;;;;;;8.06;40.82;100800.15;1758775;81;25615;-67
2022/05/05 03:32:32;;;;;;;7.00;2.55;;;;;;;8.09;40.93;100802.26;1740705;82;25398;-67
2022/05/05 03:34:58;;;;;;;9.45;3.00;;;;;;;8.10;40.84;100791.76;1740643;82;25631;-67
2022/05/05 03:37:31;;;;;;;6.45;3.10;;;;;;;8.15;40.88;100795.21;1758875;81;25567;-67
2022/05/05 03:39:57;;;;;;;7.78;2.92;;;;;;;8.19;40.69;100796.28;1740718;82;27272;-66
2022/05/05 03:42:23;;;;;;;5.75;3.05;;;;;;;8.21;40.61;100792.75;1740622;82;25639;-67
2022/05/05 03:44:50;;;;;;;5.28;2.50;;;;;;;8.25;40.69;100794.34;1740792;82;25540;-67
2022/05/05 03:47:16;;;;;;;3.95;2.80;;;;;;;8.27;40.54;100793.52;1740790;82;25685;-68
2022/05/05 03:49:42;;;;;;;4.75;2.83;;;;;;;8.38;40.42;100806.39;1759030;81;32801;-67
2022/05/05 03:52:08;;;;;;;4.03;2.35;;;;;;;8.38;40.42;100806.39;1740807;82;28211;-67
2022/05/05 03:54:34;;;;;;;5.95;2.60;;;;;;;8.35;40.49;100794.81;1740740;82;25622;-67
2022/05/05 03:57:00;;;;;;;8.58;2.92;;;;;;;8.39;40.37;100796.67;1740818;82;30206;-67
2022/05/05 03:59:27;;;;;;;5.55;3.05;;;;;;;8.39;40.21;100791.28;1758925;81;25674;-66
2022/05/05 04:01:53;;;;;;;4.47;2.37;;;;;;;8.41;40.40;100789.63;1740846;82;25420;-68
2022/05/05 04:04:19;;;;;;;7.47;2.72;;;;;;;8.43;40.29;100788.86;1740819;82;27349;-67
2022/05/05 04:06:46;;;;;;;3.12;2.17;;;;;;;8.46;40.31;100787.47;1758846;81;25461;-66
2022/05/05 04:09:13;;;;;;;4.45;2.50;;;;;;;8.47;40.35;100793.94;1740835;82;25583;-68
2022/05/05 04:11:39;;;;;;;6.78;2.58;;;;;;;8.51;40.19;100791.48;1763760;81;25619;-68
2022/05/05 04:14:05;;;;;;;7.45;2.83;;;;;;;8.48;40.11;100788.81;1769003;81;25496;-68
2022/05/05 04:16:32;;;;;;;7.28;2.70;;;;;;;8.49;40.04;100793.11;1768946;81;27378;-67
2022/05/05 04:19:03;;;;;;;4.25;2.22;;;;;;;8.50;40.12;100797.42;1768878;81;25560;-67
2022/05/05 04:21:28;;;;;;;5.85;2.58;;;;;;;8.53;40.13;100798.20;1768965;79;25591;-67
2022/05/05 04:23:54;;;;;;;11.40;2.22;;;;;;;8.55;40.23;100803.33;1768996;81;25699;-67
2022/05/05 04:26:22;;;;;;;5.33;2.92;;;;;;;8.60;40.29;100817.55;1768960;81;25575;-67
2022/05/05 04:28:50;;;;;;;7.33;2.30;;;;;;;8.64;40.19;100815.65;1768951;81;27392;-65
2022/05/05 04:31:18;;;;;;;5.87;2.62;;;;;;;8.67;40.17;100812.39;1768794;81;25385;-66
2022/05/05 04:33:44;;;;;;;4.62;2.12;;;;;;;8.70;40.06;100811.28;1768996;81;25403;-66
2022/05/05 04:36:12;;;;;;;5.67;2.77;;;;;;;8.72;40.07;100813.14;1768938;81;25667;-68
2022/05/05 04:38:39;;;;;;;6.75;2.83;;;;;;;8.77;40.00;100809.60;1769009;81;25572;-66
2022/05/05 04:41:06;;;;;;;5.22;2.80;;;;;;;8.78;39.84;100801.23;1768982;81;27354;-66
2022/05/05 04:43:33;;;;;;;5.87;2.75;;;;;;;8.80;39.98;100802.27;1768856;81;25529;-65
2022/05/05 04:46:00;;;;;;;5.28;2.47;;;;;;;8.87;40.08;100805.46;1768930;81;25475;-65
2022/05/05 04:48:26;;;;;;;6.83;2.87;;;;;;;8.90;39.94;100804.86;1768919;81;34682;-65
2022/05/05 04:50:52;;;;;;;4.35;2.55;;;;;;;8.93;39.94;100807.55;1768897;81;25644;-67
2022/05/05 04:53:18;;;;;;;7.95;2.72;;;;;;;8.93;39.89;100800.25;1768928;81;27333;-66
2022/05/05 04:55:44;;;;;;;8.68;3.30;;;;;;;8.99;39.97;100802.38;1768892;81;33466;-66
2022/05/05 04:58:10;;;;;;;7.00;2.65;;;;;;;9.08;40.05;100810.65;1768929;81;25420;-66
2022/05/05 05:00:36;;;;;;;8.95;2.67;;;;;;;9.12;39.86;100799.53;1768899;81;25678;-68
2022/05/05 05:03:02;;;;;;;6.15;2.95;;;;;;;9.17;39.83;100800.82;1768916;81;25593;-66
2022/05/05 05:05:29;;;;;;;3.77;2.50;;;;;;;9.21;39.90;100802.40;1768918;81;28100;-67
2022/05/05 05:07:55;;;;;;;6.50;2.80;;;;;;;9.24;39.75;100793.73;1768854;81;25394;-67
2022/05/05 05:10:21;;;;;;;8.50;2.42;;;;;;;9.32;39.86;100800.65;1768609;80;29634;-67
2022/05/05 05:12:47;;;;;;;5.53;2.50;;;;;;;9.39;39.59;100807.61;1767312;81;25649;-67
2022/05/05 05:15:13;;;;;;;5.15;2.60;;;;;;;9.43;39.68;100800.53;1767349;81;25445;-68
2022/05/05 05:17:39;;;;;;;5.17;2.33;;;;;;;9.45;39.59;100798.33;1767326;81;27389;-65
2022/05/05 05:20:09;;;;;;;5.90;2.58;;;;;;;9.52;39.63;100796.11;1767189;81;25561;-65
2022/05/05 05:22:36;;;;;;;5.67;2.40;;;;;;;9.60;39.82;100806.80;1767275;81;25398;-66
2022/05/05 05:25:04;;;;;;;5.62;2.47;;;;;;;9.65;39.54;100808.91;1767235;81;25633;-65
2022/05/05 05:27:30;;;;;;;7.70;3.45;;;;;;;9.69;39.53;100807.22;1767335;81;25388;-66
2022/05/05 05:29:56;;;;;;;8.60;2.62;;;;;;;9.78;39.56;100816.83;1767266;81;27309;-66
2022/05/05 05:32:22;;;;;;;7.25;2.90;;;;;;;9.88;39.59;100820.75;1767210;81;25604;-66
2022/05/05 05:34:48;;;;;;;9.43;3.08;;;;;;;9.93;39.43;100810.42;1767308;81;25558;-66
2022/05/05 05:37:14;;;;;;;6.05;2.52;;;;;;;10.02;39.43;100814.06;1767239;81;25649;-66
2022/05/05 05:39:40;;;;;;;6.37;3.02;;;;;;;10.08;39.33;100818.31;1767283;81;25562;-66
2022/05/05 05:42:08;;;;;;;7.22;3.00;;;;;;;10.11;39.05;100820.96;1767207;81;27314;-66
2022/05/05 05:44:34;;;;;;;6.12;3.02;;;;;;;10.09;39.24;100817.76;1767218;81;25391;-65
2022/05/05 05:47:01;;;;;;;6.42;2.60;;;;;;;10.13;39.46;100824.73;1767225;81;25534;-66
2022/05/05 05:49:27;;;;;;;7.75;2.92;;;;;;;10.18;39.37;100821.95;1767231;81;25634;-65
2022/05/05 05:51:53;;;;;;;7.35;2.70;;;;;;;10.20;39.46;100821.92;1767321;81;25436;-65
2022/05/05 05:54:19;;;;;;;8.45;2.70;;;;;;;10.22;39.48;100831.89;1767271;81;27357;-65
2022/05/05 05:56:46;;;;;;;9.48;2.90;;;;;;;10.31;39.86;100833.37;1767207;81;25712;-66
2022/05/05 05:59:12;;;;;;;5.65;3.25;;;;;;;10.47;39.76;100839.38;1767129;81;25688;-66
2022/05/05 06:04:22;;;;;;;4.22;2.62;;;;;;;10.57;39.35;100835.19;1767360;81;25379;-66
2022/05/05 06:06:48;;;;;;;5.42;2.92;;;;;;;10.64;39.31;100839.66;1767373;81;29560;-66
2022/05/05 06:09:15;;;;;;;7.22;2.98;;;;;;;10.76;39.31;100835.66;1767195;81;25447;-69
2022/05/05 06:11:41;;;;;;;7.28;2.98;;;;;;;10.89;39.40;100833.55;1774777;80;25697;-71
2022/05/05 06:14:07;;;;;;;10.00;3.15;;;;;;;11.05;39.40;100823.80;1771146;79;26706;-71
2022/05/05 06:16:33;;;;;;;8.25;3.22;;;;;;;11.23;39.44;100828.89;1771990;81;25433;-70
2022/05/05 06:19:00;;;;;;;24.30;10.70;;;;;;;11.38;39.19;100823.18;1771921;81;27832;-70
2022/05/05 06:21:28;;;;;;;7.67;3.47;;;;;;;11.51;38.99;100821.55;1771856;81;25594;-70
2022/05/05 06:23:54;;;;;;;7.55;3.22;;;;;;;11.63;38.55;100826.46;1771816;81;25385;-70
2022/05/05 06:26:21;;;;;;;10.65;3.02;;;;;;;11.64;38.46;100823.45;1743535;81;25611;-71
2022/05/05 06:28:48;;;;;;;6.55;3.10;;;;;;;11.66;38.68;100826.66;1771880;81;25437;-70
2022/05/05 06:31:14;;;;;;;8.68;2.90;;;;;;;11.76;38.78;100829.18;1771833;81;27330;-70
2022/05/05 06:33:40;;;;;;;9.15;3.22;;;;;;;11.87;38.62;100829.75;1771732;81;25375;-70
2022/05/05 06:36:06;;;;;;;15.68;3.30;;;;;;;11.90;38.43;100833.75;1771761;81;25707;-70
2022/05/05 06:38:32;;;;;;;10.23;3.35;;;;;;;11.93;38.55;100830.47;1771804;81;25599;-70
2022/05/05 06:40:59;;;;;;;7.33;3.37;;;;;;;12.03;38.35;100834.87;1771862;81;25641;-71
2022/05/05 06:43:25;;;;;;;7.80;2.55;;;;;;;12.10;38.49;100837.95;1771807;81;27931;-71
2022/05/05 06:45:52;;;;;;;8.80;3.22;;;;;;;12.21;38.77;100834.45;1771779;81;25729;-71
2022/05/05 06:48:18;;;;;;;6.80;2.90;;;;;;;12.36;38.67;100836.83;1771850;81;25649;-71
2022/05/05 06:50:44;;;;;;;7.65;3.15;;;;;;;12.48;38.53;100834.36;1771795;81;25517;-71
2022/05/05 06:53:10;;;;;;;8.15;3.30;;;;;;;12.62;38.44;100832.94;1771850;81;25582;-71
2022/05/05 06:55:36;;;;;;;5.42;3.02;;;;;;;12.77;38.35;100836.37;1771878;81;28072;-71
2022/05/05 06:58:02;;;;;;;11.10;2.95;;;;;;;12.86;38.15;100826.38;1771723;81;33130;-71
2022/05/05 07:01:51;;;;;;;10.40;3.58;;;;;;;12.96;38.14;100832.11;1771897;81;25583;-71
2022/05/05 07:02:56;;;;;;;9.88;3.00;;;;;;;13.00;38.06;100821.64;1767535;81;25625;-71
2022/05/05 07:05:27;;;;;;;9.28;2.92;;;;;;;13.04;37.88;100824.00;1771863;81;25447;-71
2022/05/05 07:07:53;;;;;;;7.35;3.05;;;;;;;13.11;37.85;100828.16;1771886;81;27302;-71
2022/05/05 07:13:07;;;;;;;6.62;3.42;;;;;;;13.06;37.63;100832.63;1768958;80;25628;-71
2022/05/05 07:15:34;;;;;;;7.37;3.42;;;;;;;13.03;37.62;100833.25;1768751;81;25631;-70
2022/05/05 07:18:00;;;;;;;6.62;3.02;;;;;;;13.05;37.71;100845.95;1768720;81;25558;-71
2022/05/05 07:20:27;;;;;;;6.35;3.10;;;;;;;13.08;37.79;100835.83;1768910;81;27323;-71
2022/05/05 07:22:53;;;;;;;7.95;3.20;;;;;;;13.15;37.86;100841.38;1734655;82;25463;-72
2022/05/05 07:25:19;;;;;;;6.90;2.72;;;;;;;13.20;37.94;100843.39;1736789;82;29987;-70
2022/05/05 07:27:46;;;;;;;7.35;2.52;;;;;;;13.25;38.11;100837.02;1736765;82;25692;-71
2022/05/05 07:30:14;;;;;;;8.95;2.77;;;;;;;13.39;38.27;100845.88;1736749;82;25462;-71
2022/05/05 07:32:42;;;;;;;14.05;3.98;;;;;;;13.48;38.29;100841.84;1736789;82;27909;-71
2022/05/05 07:35:11;;;;;;;6.47;2.92;;;;;;;13.62;38.40;100845.25;1736657;82;25461;-71
2022/05/05 07:37:39;;;;;;;6.42;3.02;;;;;;;13.79;38.21;100845.84;1736948;82;25605;-71
2022/05/05 07:40:08;;;;;;;12.30;3.27;;;;;;;13.97;38.22;100843.94;1736736;82;26236;-71
2022/05/05 07:42:37;;;;;;;10.05;2.83;;;;;;;14.16;37.93;100846.92;1736944;82;25566;-71
2022/05/05 07:45:04;;;;;;;7.87;2.90;;;;;;;14.29;37.70;100847.33;1737216;82;27345;-71
2022/05/05 07:47:31;;;;;;;6.72;2.72;;;;;;;14.42;37.51;100845.58;1736725;82;25471;-71
2022/05/05 07:49:57;;;;;;;9.58;2.70;;;;;;;14.55;37.48;100847.30;1736822;82;25645;-69
2022/05/05 07:52:23;;;;;;;9.93;2.55;;;;;;;14.69;37.73;100847.17;1736822;82;25665;-71
2022/05/05 07:54:49;;;;;;;7.20;2.60;;;;;;;14.87;37.22;100842.47;1736783;82;25387;-71
2022/05/05 07:57:17;;;;;;;10.58;2.90;;;;;;;14.96;36.84;100832.91;1736744;82;27319;-72
2022/05/05 07:59:45;;;;;;;6.15;2.50;;;;;;;15.04;36.65;100832.66;1736719;82;25827;-68
2022/05/05 08:02:14;;;;;;;7.45;2.72;;;;;;;15.10;36.55;100839.52;1736789;82;25704;-72
2022/05/05 08:04:44;;;;;;;4.72;2.72;;;;;;;15.10;36.75;100838.97;1736748;82;25800;-72
2022/05/05 08:07:12;;;;;;;9.10;2.70;;;;;;;15.18;36.72;100842.77;1767464;81;25697;-72
2022/05/05 08:09:38;;;;;;;8.35;2.90;;;;;;;15.27;36.65;100837.28;1768777;81;27324;-72
2022/05/05 08:12:06;;;;;;;7.92;3.08;;;;;;;15.39;36.68;100832.50;1739797;81;25667;-68
2022/05/05 08:14:33;;;;;;;9.48;2.77;;;;;;;15.49;36.51;100829.41;1745506;82;25722;-71
2022/05/05 08:16:59;;;;;;;5.78;2.67;;;;;;;15.52;36.18;100832.84;1745408;82;26282;-70
2022/05/05 08:19:25;;;;;;;6.80;2.85;;;;;;;15.57;36.31;100835.38;1745487;82;25523;-68
2022/05/05 08:21:52;;;;;;;11.05;3.15;;;;;;;15.61;36.66;100826.80;1745511;82;27948;-69
2022/05/05 08:29:48;;;;;;;7.42;3.35;;;;;;;16.61;38.23;100831.64;1745468;82;25611;-75
2022/05/05 08:32:14;;;;;;;8.35;3.35;;;;;;;17.21;37.16;100831.33;1745504;82;25396;-76
2022/05/05 08:34:41;;;;;;;7.78;3.67;;;;;;;17.50;36.78;100829.75;1745569;81;27436;-76
2022/05/05 08:37:08;;;;;;;9.98;3.22;;;;;;;17.72;36.38;100824.92;1722272;82;25630;-76
2022/05/05 08:39:34;;;;;;;8.13;2.85;;;;;;;17.94;35.36;100826.39;1745430;82;25306;-74
2022/05/05 08:42:06;;;;;;;8.35;2.60;;;;;;;18.08;36.57;100831.48;1745422;82;26117;-73
2022/05/05 08:44:32;;;;;;;4.55;2.77;;;;;;;18.52;35.47;100835.66;1745550;82;25388;-72
2022/05/05 08:46:59;;;;;;;13.53;3.10;;;;;;;18.69;34.46;100838.66;1745512;82;28008;-72
2022/05/05 08:49:26;;;;;;;3.95;2.85;;;;;;;18.74;34.34;100838.39;1764701;81;25281;-74
2022/05/05 08:52:01;;;;;;;7.08;2.90;;;;;;;18.81;34.06;100833.13;1764836;81;25210;-73
2022/05/05 08:54:32;;;;;;;7.37;2.70;;;;;;;18.95;34.42;100829.98;1709244;82;25686;-74
2022/05/05 08:56:58;;;;;;;4.58;2.90;;;;;;;19.09;33.66;100823.27;1758982;81;25425;-73
2022/05/05 08:59:25;;;;;;;9.58;3.12;;;;;;;19.19;34.19;100824.89;1759041;81;27986;-71
2022/05/05 09:01:52;;;;;;;5.28;2.80;;;;;;;19.20;33.67;100823.72;1759236;81;25667;-73
2022/05/05 09:04:20;;;;;;;3.98;2.60;;;;;;;19.25;33.34;100823.25;1759347;81;25540;-72
2022/05/05 09:06:53;;;;;;;8.43;2.90;;;;;;;19.62;33.22;100829.22;1759264;81;25629;-73
2022/05/05 09:09:26;;;;;;;10.13;2.92;;;;;;;19.87;33.62;100819.38;1758429;81;25175;-69
2022/05/05 09:12:17;;;;;;;5.25;2.85;;;;;;;20.29;32.78;100824.96;1758154;79;27293;-69
2022/05/05 09:14:53;;;;;;;7.80;2.87;;;;;;;20.50;32.20;100828.72;1758706;81;25725;-71
2022/05/05 09:17:24;;;;;;;8.30;2.83;;;;;;;20.65;32.56;100815.27;1758376;81;25717;-70
2022/05/05 09:19:56;;;;;;;7.08;2.62;;;;;;;21.00;31.96;100812.94;1758581;81;26255;-70
2022/05/05 09:22:26;;;;;;;7.75;2.75;;;;;;;21.37;32.01;100829.64;1758643;81;25719;-68
2022/05/05 09:24:56;;;;;;;10.68;4.45;;;;;;;21.50;30.75;100825.33;1758270;81;27318;-71
2022/05/05 09:27:34;;;;;;;8.88;2.55;;;;;;;21.42;30.64;100818.32;1758409;81;25673;-70
2022/05/05 09:30:13;;;;;;;5.00;2.83;;;;;;;21.61;31.35;100815.28;1758666;81;25716;-71
2022/05/05 09:32:43;;;;;;;11.03;2.83;;;;;;;21.71;30.88;100814.64;1758315;81;30720;-70
2022/05/05 09:35:18;;;;;;;5.35;2.83;;;;;;;22.10;31.23;100819.05;1758467;81;25725;-69
2022/05/05 09:37:52;;;;;;;2.70;2.20;;;;;;;22.53;30.61;100813.48;1757986;81;27020;-69
2022/05/05 09:40:22;;;;;;;11.57;3.00;;;;;;;22.78;29.98;100810.75;1722540;83;25429;-68
2022/05/05 09:42:52;;;;;;;7.17;2.70;;;;;;;22.66;28.85;100815.95;1734276;82;26425;-68
2022/05/05 09:45:29;;;;;;;8.75;3.15;;;;;;;22.52;28.86;100806.96;1709546;82;25664;-69
2022/05/05 09:48:01;;;;;;;5.33;2.83;;;;;;;22.59;29.59;100806.24;1740241;80;25763;-69
2022/05/05 09:50:33;;;;;;;5.97;2.47;;;;;;;22.89;28.92;100811.65;1739530;82;27391;-71
2022/05/05 09:58:39;;;;;;;7.37;2.80;;;;;;;23.42;28.52;100813.27;1739620;82;25608;-62
2022/05/05 10:01:09;;;;;;;5.80;2.75;;;;;;;23.57;28.30;100796.99;1732319;82;25611;-62
2022/05/05 10:04:03;;;;;;;10.72;2.87;;;;;;;23.62;27.61;100797.22;1758584;81;27989;-66
2022/05/05 10:06:37;;;;;;;4.62;3.02;;;;;;;23.71;25.95;100813.44;1758678;81;25429;-68
2022/05/05 10:09:08;;;;;;;7.83;2.20;;;;;;;23.44;25.87;100801.25;1757635;81;25432;-69
2022/05/05 10:11:35;;;;;;;7.35;2.60;;;;;;;23.43;26.89;100798.30;1758368;81;27759;-68
2022/05/05 10:14:07;;;;;;;4.90;2.65;;;;;;;23.47;26.60;100786.68;1767255;80;25547;-68
2022/05/05 10:16:33;;;;;;;8.93;4.30;;;;;;;23.37;26.31;100781.29;1768124;80;27296;-68
2022/05/05 10:19:03;;;;;;;6.08;2.90;;;;;;;23.45;26.62;100784.30;1768346;80;25617;-68
2022/05/05 10:21:56;;;;;;;3.42;2.27;;;;;;;23.67;26.77;100789.95;1768408;81;25597;-68
2022/05/05 10:24:31;;;;;;;5.00;2.40;;;;;;;23.74;25.71;100793.34;1768191;80;25631;-66
2022/05/05 10:27:01;;;;;;;4.95;2.58;;;;;;;23.79;24.74;100792.97;1768382;81;25655;-69
2022/05/05 10:29:43;;;;;;;4.83;2.35;;;;;;;23.66;25.53;100796.05;1724627;81;28323;-68
2022/05/05 10:32:13;;;;;;;3.72;2.45;;;;;;;23.49;25.77;100775.44;1767954;81;25665;-68
2022/05/05 10:34:41;;;;;;;5.47;2.35;;;;;;;23.61;26.22;100774.92;1768320;81;25577;-65
2022/05/05 10:37:11;;;;;;;6.60;2.77;;;;;;;23.67;25.79;100779.69;1768314;81;25993;-67
2022/05/05 10:39:51;;;;;;;4.97;2.50;;;;;;;23.89;25.80;100779.02;1768191;81;25619;-68
2022/05/05 10:42:46;;;;;;;6.72;2.50;;;;;;;24.16;26.25;100768.45;1768356;80;27420;-66
2022/05/05 10:45:27;;;;;;;8.15;2.47;;;;;;;24.59;25.75;100781.81;1768052;81;25550;-65
2022/05/05 10:48:01;;;;;;;5.92;2.60;;;;;;;24.68;25.41;100777.88;1760395;80;25522;-65
2022/05/05 10:50:56;;;;;;;4.17;2.80;;;;;;;24.83;24.54;100771.16;1768292;80;25660;-65
2022/05/05 10:53:31;;;;;;;9.38;2.90;;;;;;;24.73;24.53;100769.18;1768068;80;25578;-66
2022/05/05 10:56:01;;;;;;;3.22;2.80;;;;;;;24.78;24.45;100757.12;1768495;80;29460;-67
2022/05/05 10:59:09;;;;;;;7.72;2.75;;;;;;;24.96;24.41;100763.23;1767931;80;25554;-67
2022/05/05 11:01:50;;;;;;;6.08;2.60;;;;;;;25.02;24.60;100760.27;1768274;80;25384;-66
2022/05/05 11:04:23;;;;;;;12.65;3.65;;;;;;;25.29;24.22;100755.13;1768484;81;25671;-67
2022/05/05 11:07:21;;;;;;;8.50;3.42;;;;;;;25.15;23.92;100757.91;1768472;81;25346;-67
2022/05/05 11:09:47;;;;;;;6.03;2.90;;;;;;;25.23;24.07;100755.30;1768300;81;27328;-67
2022/05/05 11:12:16;;;;;;;6.40;3.20;;;;;;;24.97;24.29;100752.37;1748845;81;25720;-69
2022/05/05 11:23:48;;;;;;;6.22;3.37;;;;;;;24.43;24.36;100759.23;1768377;81;27302;-68
2022/05/05 11:26:17;;;;;;;4.10;3.25;;;;;;;24.13;23.97;100763.73;1768392;81;25397;-68
2022/05/05 11:28:45;;;;;;;6.65;2.90;;;;;;;23.66;24.44;100759.36;1767750;80;25437;-68
2022/05/05 11:31:28;;;;;;;6.35;2.83;;;;;;;23.40;25.08;100763.97;1768061;81;25656;-67
2022/05/05 11:34:00;;;;;;;5.45;3.40;;;;;;;23.31;25.07;100756.03;1768323;80;25701;-67
2022/05/05 11:36:30;;;;;;;7.47;3.05;;;;;;;23.18;25.28;100763.63;1768293;80;29482;-67
2022/05/05 11:38:57;;;;;;;;;;;;;;;23.03;25.74;100753.83;1770786;81;25443;-69
2022/05/05 11:41:24;;;;;;;4.28;2.87;;;;;;;23.07;26.15;100764.91;1768443;80;25606;-68
2022/05/05 11:46:38;;;;;;;8.25;3.10;;;;;;;23.31;25.84;100755.25;1768318;81;25726;-68
2022/05/05 11:49:06;;;;;;;5.20;3.50;;;;;;;23.16;25.78;100765.39;1768710;81;27957;-67
2022/05/05 11:51:35;;;;;;;8.55;3.62;;;;;;;23.13;25.91;100760.64;1768456;80;25585;-69
2022/05/05 11:54:10;;;;;;;17.10;4.10;;;;;;;23.01;25.92;100752.05;1768170;80;25640;-68
2022/05/05 11:56:47;;;;;;;6.95;3.15;;;;;;;22.82;26.13;100746.19;1767695;80;25696;-68
2022/05/05 12:02:21;;;;;;;5.58;3.65;;;;;;;22.30;26.40;100746.10;1768485;81;28110;-68
2022/05/05 12:04:55;;;;;;;8.93;3.67;;;;;;;22.03;27.05;100750.11;1738593;80;25811;-68
2022/05/05 12:07:24;;;;;;;7.00;3.55;;;;;;;22.17;27.58;100744.78;1753687;81;26082;-68
2022/05/05 12:09:54;;;;;;;6.65;3.80;;;;;;;22.37;27.83;100740.69;1760812;81;25670;-66
2022/05/05 12:12:23;;;;;;;8.05;3.50;;;;;;;22.63;27.62;100735.37;1768041;80;25724;-66
2022/05/05 12:14:52;;;;;;;;;;;;;;;22.75;27.70;100735.89;1739586;81;27895;-66
2022/05/05 12:17:26;;;;;;;14.55;3.83;;;;;;;23.03;27.61;100736.50;1766682;81;25644;-66
2022/05/05 12:20:06;;;;;;;8.08;4.20;;;;;;;23.46;27.70;100725.73;1765390;81;25721;-66
2022/05/05 12:22:39;;;;;;;8.60;3.83;;;;;;;23.83;27.29;100720.01;1766367;81;25676;-65